Time;durP1;ratioP1;P1;durP2;ratioP2;P2;SDS_P1;SDS_P2;PMS_P1;PMS_P2;Temp;Humidity;BMP_temperature;BMP_pressure;BME280_temperature;BME280_humidity;BME280_pressure;Samples;Min_cycle;Max_cycle;Signal;HPM_P1;HPM_P2
2024/01/22 00:25:36;;;;;;;96.57;35.80;;;-5.60;99.90;;;;;;6240502;23;20046;-79
2024/01/22 00:29:18;;;;;;;97.63;35.53;;;-4.00;99.90;;;;;;6148752;23;20033;-80
2024/01/22 00:33:02;;;;;;;106.50;36.00;;;-4.30;99.90;;;;;;6150193;23;20090;-79
2024/01/22 00:36:04;;;;;;;102.00;35.33;;;-4.30;99.90;;;;;;6149002;23;20034;-79
2024/01/22 00:43:10;;;;;;;99.22;35.28;;;-3.50;99.90;;;;;;6066564;23;20055;-80
2024/01/22 00:46:00;;;;;;;90.90;32.95;;;-4.40;99.90;;;;;;6019844;23;20074;-80
2024/01/22 00:48:40;;;;;;;93.75;31.33;;;-4.40;99.90;;;;;;6109765;23;20077;-79
2024/01/22 00:55:26;;;;;;;81.72;29.52;;;-4.40;99.90;;;;;;6071674;23;20066;-79
2024/01/22 00:58:03;;;;;;;89.72;30.65;;;-4.40;99.90;;;;;;6091269;23;20031;-80
2024/01/22 01:00:54;;;;;;;96.78;32.90;;;-3.80;99.90;;;;;;6090609;23;20014;-80
2024/01/22 01:03:48;;;;;;;94.25;33.28;;;-4.50;99.90;;;;;;6092103;23;20003;-79
2024/01/22 01:06:28;;;;;;;78.05;28.73;;;-4.60;99.90;;;;;;6103086;23;20037;-80
2024/01/22 01:09:06;;;;;;;84.43;32.40;;;-4.60;99.90;;;;;;6135145;23;20017;-80
2024/01/22 01:12:04;;;;;;;97.50;32.97;;;-3.70;99.90;;;;;;6177443;23;20028;-79
2024/01/22 01:15:20;;;;;;;77.25;29.02;;;-4.60;99.90;;;;;;6095058;23;20025;-80
2024/01/22 01:18:26;;;;;;;87.90;30.25;;;-4.60;99.90;;;;;;6095814;23;20018;-80
2024/01/22 01:21:00;;;;;;;77.28;28.95;;;-4.50;99.90;;;;;;6149048;23;20025;-80
2024/01/22 01:24:12;;;;;;;76.65;28.45;;;-4.70;99.90;;;;;;6092202;23;20006;-79
2024/01/22 01:27:27;;;;;;;77.55;27.80;;;-4.30;99.90;;;;;;6063860;23;20051;-79
2024/01/22 01:30:24;;;;;;;77.68;27.83;;;-4.60;99.90;;;;;;6027834;23;20035;-80
2024/01/22 01:32:59;;;;;;;77.30;28.25;;;-4.60;99.90;;;;;;6004152;24;20501;-80
2024/01/22 01:35:49;;;;;;;80.60;26.60;;;-4.10;99.90;;;;;;5981213;24;20092;-80
2024/01/22 01:38:26;;;;;;;85.30;27.05;;;-4.70;99.90;;;;;;6005936;23;20024;-80
2024/01/22 01:45:41;;;;;;;74.07;26.67;;;-4.70;99.90;;;;;;6014472;23;20142;-80
2024/01/22 01:52:46;;;;;;;78.30;25.13;;;-4.80;99.90;;;;;;6069812;23;20055;-80
2024/01/22 01:55:27;;;;;;;76.47;25.70;;;-4.60;99.90;;;;;;6058450;23;20048;-80
2024/01/22 01:58:09;;;;;;;70.22;25.23;;;-4.80;99.90;;;;;;6039836;23;20033;-80
2024/01/22 02:01:07;;;;;;;74.50;25.63;;;-4.80;99.90;;;;;;6092232;23;20030;-80
2024/01/22 02:04:10;;;;;;;69.88;24.98;;;-4.20;99.90;;;;;;6066953;23;20027;-80
2024/01/22 02:06:49;;;;;;;;;;;-4.90;99.90;;;;;;6091938;23;20054;-80
2024/01/22 02:09:42;;;;;;;;;;;-4.90;99.90;;;;;;6109653;23;19917;-80
2024/01/22 02:15:24;;;;;;;;;;;-5.90;99.90;;;;;;6120830;23;20039;-80
2024/01/22 02:18:02;;;;;;;;;;;-3.90;99.90;;;;;;6120622;23;19901;-80
2024/01/22 02:20:45;;;;;;;;;;;-5.00;99.90;;;;;;6119967;23;19917;-80
2024/01/22 02:23:33;;;;;;;;;;;-4.90;99.90;;;;;;6120635;23;19917;-79
2024/01/22 02:26:34;;;;;;;;;;;-5.00;99.90;;;;;;6101400;23;19917;-79
2024/01/22 02:29:05;;;;;;;;;;;-5.00;99.90;;;;;;6096275;23;19917;-79
2024/01/22 02:32:00;;;;;;;;;;;-4.90;99.90;;;;;;6072034;23;19936;-80
2024/01/22 02:34:40;;;;;;;;;;;-5.00;99.90;;;;;;6059212;23;19918;-79
2024/01/22 02:37:25;;;;;;;;;;;-4.90;99.90;;;;;;6034722;23;19918;-79
2024/01/22 02:43:07;;;;;;;;;;;-5.30;99.90;;;;;;6072821;23;19932;-79
2024/01/22 02:45:37;;;;;;;;;;;-5.20;99.90;;;;;;6119613;23;19917;-79
2024/01/22 02:48:10;;;;;;;;;;;-5.00;99.90;;;;;;6095672;23;19929;-80
2024/01/22 02:50:44;;;;;;;;;;;-5.10;99.90;;;;;;6133078;23;19917;-79
2024/01/22 02:53:22;;;;;;;;;;;-5.10;99.90;;;;;;6179979;23;19940;-80
2024/01/22 02:55:59;;;;;;;;;;;-5.80;99.90;;;;;;6156582;23;20437;-80
2024/01/22 03:02:43;;;;;;;;;;;-5.20;99.90;;;;;;6211124;23;19922;-80
2024/01/22 03:05:17;;;;;;;;;;;-5.20;99.90;;;;;;6243786;23;19899;-79
2024/01/22 03:07:49;;;;;;;;;;;-5.00;99.90;;;;;;6268234;23;19939;-80
2024/01/22 03:13:19;;;;;;;;;;;-5.10;99.90;;;;;;6269348;23;19922;-80
2024/01/22 03:16:10;;;;;;;;;;;-5.00;99.90;;;;;;6242485;23;20356;-80
2024/01/22 03:19:17;;;;;;;;;;;-5.70;99.90;;;;;;6237321;23;19920;-80
2024/01/22 03:21:49;;;;;;;;;;;-4.40;99.90;;;;;;6226721;23;19900;-80
2024/01/22 03:24:23;;;;;;;;;;;-4.70;99.90;;;;;;6244308;23;19915;-80
2024/01/22 03:27:01;;;;;;;;;;;-5.10;99.90;;;;;;6242610;23;19946;-79
2024/01/22 03:29:35;;;;;;;;;;;-5.10;99.90;;;;;;6267467;23;19944;-80
2024/01/22 03:32:04;;;;;;;;;;;-5.20;99.90;;;;;;6240428;23;19927;-79
2024/01/22 03:34:37;;;;;;;;;;;-5.20;99.90;;;;;;6242623;23;19922;-79
2024/01/22 03:37:21;;;;;;;;;;;-5.20;99.90;;;;;;6269483;23;19915;-80
2024/01/22 03:39:58;;;;;;;;;;;-5.20;99.90;;;;;;6244400;23;19915;-79
2024/01/22 03:42:39;;;;;;;;;;;-5.20;99.90;;;;;;6270034;23;20375;-79
2024/01/22 03:45:43;;;;;;;;;;;-5.20;99.90;;;;;;6240076;23;19916;-80
2024/01/22 03:48:15;;;;;;;;;;;-5.30;99.90;;;;;;6242698;22;19919;-79
2024/01/22 03:50:54;;;;;;;;;;;-5.30;99.90;;;;;;6271410;23;19928;-79
2024/01/22 03:53:29;;;;;;;;;;;-5.30;99.90;;;;;;6270614;22;19923;-79
2024/01/22 03:55:59;;;;;;;;;;;-5.20;99.90;;;;;;6275389;22;19922;-79
2024/01/22 03:58:40;;;;;;;;;;;-5.30;99.90;;;;;;6275018;22;19915;-80
2024/01/22 04:01:24;;;;;;;;;;;-5.80;99.90;;;;;;6301813;22;19954;-79
2024/01/22 04:04:29;;;;;;;;;;;-5.40;99.90;;;;;;6302033;22;19922;-79
2024/01/22 04:07:01;;;;;;;;;;;-5.40;99.90;;;;;;6270383;23;19923;-80
2024/01/22 04:09:36;;;;;;;;;;;-6.80;99.90;;;;;;6221475;23;19923;-80
2024/01/22 04:12:10;;;;;;;;;;;-4.30;99.90;;;;;;6270411;23;19922;-79
2024/01/22 04:14:42;;;;;;;;;;;-5.40;99.90;;;;;;6220312;23;20284;-79
2024/01/22 04:17:15;;;;;;;;;;;-5.40;99.90;;;;;;6261834;22;19918;-79
2024/01/22 04:19:56;;;;;;;;;;;-5.40;99.90;;;;;;6308008;22;19915;-79
2024/01/22 04:25:28;;;;;;;;;;;-5.40;99.90;;;;;;6307211;22;19906;-79
2024/01/22 04:28:08;;;;;;;;;;;-5.30;99.90;;;;;;6332486;22;19899;-79
2024/01/22 04:30:39;;;;;;;;;;;-5.40;99.90;;;;;;6307209;22;19922;-79
2024/01/22 04:33:24;;;;;;;;;;;-6.10;99.90;;;;;;6283137;22;19921;-79
2024/01/22 04:35:57;;;;;;;;;;;-5.50;99.90;;;;;;6306200;22;19937;-79
2024/01/22 04:38:30;;;;;;;;;;;-5.40;99.90;;;;;;6331467;22;19915;-79
2024/01/22 04:41:04;;;;;;;;;;;-5.50;99.90;;;;;;6301023;22;19961;-79
2024/01/22 04:43:38;;;;;;;;;;;-5.40;99.90;;;;;;6332387;22;19914;-79
2024/01/22 04:46:21;;;;;;;;;;;-5.40;99.90;;;;;;6335677;22;19906;-79
2024/01/22 04:51:39;;;;;;;;;;;-5.50;99.90;;;;;;6338207;22;19905;-79
2024/01/22 04:54:13;;;;;;;;;;;-5.60;99.90;;;;;;6338004;22;19905;-79
2024/01/22 04:57:21;;;;;;;;;;;-7.60;99.90;;;;;;6365398;22;19961;-80
2024/01/22 05:00:08;;;;;;;;;;;-5.60;99.90;;;;;;6342175;22;19914;-79
2024/01/22 05:03:10;;;;;;;;;;;-5.60;99.90;;;;;;6337570;22;19914;-80
2024/01/22 05:06:02;;;;;;;;;;;-5.70;99.90;;;;;;6270596;23;19921;-79
2024/01/22 05:08:38;;;;;;;;;;;-5.50;99.90;;;;;;6209335;23;19916;-79
2024/01/22 05:11:09;;;;;;;;;;;-5.60;99.90;;;;;;6185309;23;19916;-79
2024/01/22 05:13:48;;;;;;;;;;;-5.70;99.90;;;;;;6135606;23;19916;-79
2024/01/22 05:16:28;;;;;;;;;;;-4.80;99.90;;;;;;6210048;23;20318;-79
2024/01/22 05:19:39;;;;;;;;;;;-5.50;99.90;;;;;;6210527;23;19931;-79
2024/01/22 05:22:33;;;;;;;;;;;-7.00;99.90;;;;;;6155335;23;19956;-79
2024/01/22 05:28:04;;;;;;;;;;;-5.60;99.90;;;;;;6121260;23;19917;-79
2024/01/22 05:30:44;;;;;;;;;;;-5.80;99.90;;;;;;6122287;23;19933;-79
2024/01/22 05:33:19;;;;;;;;;;;-5.80;99.90;;;;;;6051423;23;19932;-79
2024/01/22 05:38:46;;;;;;;;;;;-5.10;99.90;;;;;;6187262;23;19901;-79
2024/01/22 05:41:43;;;;;;;;;;;-6.30;99.90;;;;;;6270946;23;19938;-79
2024/01/22 05:44:19;;;;;;;;;;;-5.80;99.90;;;;;;6209803;23;19939;-79
2024/01/22 05:46:55;;;;;;;;;;;-5.30;99.90;;;;;;6181196;23;19916;-79
2024/01/22 05:49:28;;;;;;;;;;;-5.90;99.90;;;;;;6183543;23;19948;-80
2024/01/22 05:52:03;;;;;;;;;;;-5.90;99.90;;;;;;6207633;23;19900;-79
2024/01/22 05:54:33;;;;;;;;;;;-5.90;99.90;;;;;;6207232;23;19916;-79
2024/01/22 05:57:06;;;;;;;;;;;-6.40;99.90;;;;;;6208696;23;19920;-80
2024/01/22 06:03:03;;;;;;;;;;;-6.50;99.90;;;;;;6159898;23;19924;-79
2024/01/22 06:12:04;;;;;;;;;;;-6.10;99.90;;;;;;6210728;23;19920;-79
2024/01/22 06:14:34;;;;;;;;;;;-4.30;99.90;;;;;;6222565;23;19922;-78
2024/01/22 06:17:04;;;;;;;;;;;-6.00;99.90;;;;;;6251304;22;19952;-79
2024/01/22 06:19:43;;;;;;;;;;;-6.00;99.90;;;;;;6334492;22;19914;-79
2024/01/22 06:22:18;;;;;;;;;;;-6.10;99.90;;;;;;6308621;22;19914;-79
2024/01/22 06:24:50;;;;;;;;;;;-6.00;99.90;;;;;;6307459;22;19899;-79
2024/01/22 06:27:25;;;;;;;;;;;-6.10;99.90;;;;;;6300486;22;19915;-80
2024/01/22 06:34:01;;;;;;;;;;;-5.90;99.90;;;;;;6302708;22;19994;-80
2024/01/22 06:36:51;;;;;;;;;;;-6.40;99.90;;;;;;6278522;22;19939;-79
2024/01/22 06:39:47;;;;;;;;;;;-6.10;99.90;;;;;;6252649;22;19922;-79
2024/01/22 06:42:19;;;;;;;;;;;-5.70;99.90;;;;;;6274453;22;19915;-80
2024/01/22 06:47:54;;;;;;;;;;;-4.80;99.90;;;;;;6276570;22;19903;-80
2024/01/22 06:50:24;;;;;;;;;;;-5.90;99.90;;;;;;6249460;22;19915;-79
2024/01/22 06:52:58;;;;;;;;;;;-5.90;99.90;;;;;;6272856;22;19921;-79
2024/01/22 06:55:33;;;;;;;;;;;-5.90;99.90;;;;;;6300045;22;19962;-79
2024/01/22 06:58:09;;;;;;;;;;;-6.00;99.90;;;;;;6274466;22;19955;-79
2024/01/22 07:01:02;;;;;;;;;;;-5.90;99.90;;;;;;6304193;22;19978;-80
2024/01/22 07:04:20;;;;;;;;;;;-5.60;99.90;;;;;;6303515;22;19906;-79
2024/01/22 07:07:00;;;;;;;;;;;-7.40;99.90;;;;;;6304144;22;19943;-79
2024/01/22 07:10:16;;;;;;;;;;;-7.90;99.90;;;;;;6273087;23;19899;-80
2024/01/22 07:14:06;;;;;;;;;;;-4.50;99.90;;;;;;6272848;23;19922;-79
2024/01/22 07:20:04;;;;;;;;;;;-5.50;99.90;;;;;;6152804;23;19924;-79
2024/01/22 07:26:27;;;;;;;;;;;-6.60;99.90;;;;;;6037421;23;19929;-79
2024/01/22 07:38:59;;;;;;;;;;;-5.10;99.90;;;;;;5953702;24;19903;-79
2024/01/22 07:48:24;;;;;;;;;;;-5.00;99.90;;;;;;5873876;24;19923;-79
2024/01/22 07:50:59;;;;;;;;;;;-5.00;99.90;;;;;;5847217;24;19927;-79
2024/01/22 07:53:38;;;;;;;;;;;-4.80;99.90;;;;;;5867629;24;19946;-79
2024/01/22 07:56:07;;;;;;;;;;;-4.10;99.90;;;;;;5891148;24;19977;-79
2024/01/22 07:58:51;;;;;;;;;;;-4.50;99.90;;;;;;5892899;24;19904;-79
2024/01/22 08:01:45;;;;;;;;;;;-4.50;99.90;;;;;;5896492;24;19926;-79
2024/01/22 08:04:15;;;;;;;;;;;-2.30;99.90;;;;;;5962897;24;19934;-80
2024/01/22 08:07:26;;;;;;;;;;;-4.40;99.90;;;;;;5957231;24;19949;-80
2024/01/22 08:10:08;;;;;;;;;;;-5.20;99.90;;;;;;5972983;24;19919;-80
2024/01/22 08:12:50;;;;;;;;;;;-4.10;99.90;;;;;;5954956;24;19923;-80
2024/01/22 08:15:38;;;;;;;;;;;-2.70;99.90;;;;;;6027714;23;19943;-80
2024/01/22 08:18:22;;;;;;;;;;;-4.10;99.90;;;;;;6107124;23;19917;-79
2024/01/22 08:20:53;;;;;;;;;;;-4.10;99.90;;;;;;6203669;23;19916;-79
2024/01/22 08:23:23;;;;;;;;;;;-3.80;99.90;;;;;;6234672;23;19915;-80
2024/01/22 08:25:52;;;;;;;;;;;-3.80;99.90;;;;;;6262815;23;19915;-80
2024/01/22 08:28:25;;;;;;;;;;;-3.70;99.90;;;;;;6268146;23;19915;-80
2024/01/22 08:39:11;;;;;;;;;;;-3.90;99.90;;;;;;6177619;23;19924;-80
2024/01/22 08:41:57;;;;;;;;;;;-2.70;99.90;;;;;;6176776;23;19936;-80
2024/01/22 08:44:50;;;;;;;;;;;-3.50;99.90;;;;;;6177704;23;19927;-81
2024/01/22 08:50:23;;;;;;;;;;;-3.30;99.90;;;;;;6209942;23;19915;-80
2024/01/22 08:53:25;;;;;;;;;;;-3.70;99.90;;;;;;6222776;23;19926;-80
2024/01/22 08:56:56;;;;;;;;;;;-2.30;99.90;;;;;;6222918;23;19926;-80
2024/01/22 09:07:36;;;;;;;;;;;-3.10;99.90;;;;;;6208964;23;19961;-80
2024/01/22 09:10:35;;;;;;;;;;;-3.10;99.90;;;;;;6231110;23;19915;-80
2024/01/22 09:13:25;;;;;;;;;;;-3.00;99.90;;;;;;6163339;23;19919;-80
2024/01/22 09:15:59;;;;;;;;;;;-2.90;99.90;;;;;;6210688;23;19915;-80
2024/01/22 09:25:12;;;;;;;;;;;-2.80;99.90;;;;;;6147575;23;19916;-81
2024/01/22 09:32:16;;;;;;;;;;;-1.50;99.90;;;;;;6060389;23;19913;-80
2024/01/22 09:46:01;;;;;;;;;;;-2.10;99.90;;;;;;6099866;23;19921;-81
2024/01/22 09:52:02;;;;;;;;;;;-1.00;99.90;;;;;;6096062;23;19938;-80
2024/01/22 09:54:44;;;;;;;;;;;-1.70;99.90;;;;;;6120387;23;19937;-80
2024/01/22 11:15:00;;;;;;;;;;;-1.00;99.90;;;;;;6323741;22;19939;-79
2024/01/22 11:23:30;;;;;;;;;;;-0.90;99.90;;;;;;6364491;22;19898;-81
2024/01/22 11:27:05;;;;;;;;;;;-0.70;99.90;;;;;;6172863;23;19968;-79
2024/01/22 11:30:27;;;;;;;;;;;0.30;99.90;;;;;;6200528;23;19923;-82
2024/01/22 11:33:35;;;;;;;;;;;-0.90;99.90;;;;;;6033302;23;19918;-80
2024/01/22 11:36:47;;;;;;;;;;;0.50;99.90;;;;;;6120637;23;20016;-80
2024/01/22 11:40:13;;;;;;;;;;;-1.00;99.90;;;;;;6150258;23;19924;-81
2024/01/22 11:43:02;;;;;;;;;;;-0.50;99.90;;;;;;6139149;23;19921;-78
2024/01/22 12:24:22;;;;;;;;;;;-0.90;99.90;;;;;;6310616;22;19949;-82
2024/01/22 12:27:00;;;;;;;;;;;-1.10;99.90;;;;;;6330090;22;19919;-83
2024/01/22 12:32:59;;;;;;;;;;;-1.00;99.90;;;;;;6288329;22;19937;-80
2024/01/22 12:35:30;;;;;;;;;;;-0.80;99.90;;;;;;6302782;22;20308;-79
2024/01/22 12:38:14;;;;;;;;;;;-0.90;99.90;;;;;;6298212;22;20327;-80
2024/01/22 12:49:33;;;;;;;;;;;-0.90;99.90;;;;;;6122537;23;19941;-80
2024/01/22 12:56:55;;;;;;;;;;;-0.80;99.90;;;;;;6086898;23;19928;-80
2024/01/22 12:59:26;;;;;;;;;;;-1.00;99.90;;;;;;6086559;23;19918;-81
2024/01/22 13:12:23;;;;;;;;;;;-1.30;99.90;;;;;;6088898;23;19945;-81
2024/01/22 13:17:59;;;;;;;;;;;-1.00;99.90;;;;;;5976621;24;19923;-81
2024/01/22 13:20:32;;;;;;;;;;;-1.20;99.90;;;;;;6004505;24;19918;-81
2024/01/22 13:26:30;;;;;;;;;;;-1.00;99.90;;;;;;5939781;24;19956;-81
2024/01/22 14:32:42;;;;;;;;;;;-1.20;99.90;;;;;;6326668;22;19920;-80
2024/01/22 14:50:54;;;;;;;;;;;-1.40;99.90;;;;;;6293826;22;19922;-80
2024/01/22 14:54:12;;;;;;;;;;;-1.10;99.90;;;;;;6295002;22;19923;-77
2024/01/22 15:41:28;;;;;;;;;;;-1.70;99.90;;;;;;6277067;22;19967;-80
2024/01/22 15:44:03;;;;;;;;;;;-1.70;99.90;;;;;;6334723;22;19941;-80
2024/01/22 21:08:27;;;;;;;;;;;-1.50;99.90;;;;;;6363425;22;19966;-83
2024/01/22 21:14:55;;;;;;;;;;;-1.10;99.90;;;;;;6366659;22;19913;-80
2024/01/22 21:41:30;;;;;;;;;;;-1.40;99.90;;;;;;6302630;22;19952;-79
2024/01/22 21:44:25;;;;;;;;;;;-1.40;99.90;;;;;;6333348;22;19946;-81
2024/01/22 21:47:00;;;;;;;;;;;-1.40;99.90;;;;;;6329552;22;19914;-78
2024/01/22 21:49:33;;;;;;;;;;;-0.80;99.90;;;;;;6295357;22;19922;-80
2024/01/22 21:52:07;;;;;;;;;;;-1.40;99.90;;;;;;6299762;22;19915;-80
2024/01/22 21:54:51;;;;;;;;;;;-0.90;99.90;;;;;;6270273;22;19922;-81
2024/01/22 21:57:25;;;;;;;;;;;-1.60;99.90;;;;;;6274753;22;19899;-80
2024/01/22 22:35:07;;;;;;;;;;;-1.40;99.90;;;;;;6057082;23;20334;-79
2024/01/22 22:37:40;;;;;;;;;;;-1.40;99.90;;;;;;6100700;23;19924;-79
2024/01/22 22:40:21;;;;;;;;;;;-1.40;99.90;;;;;;6114321;23;19917;-80
2024/01/22 23:00:35;;;;;;;;;;;-1.40;99.90;;;;;;6008388;23;19935;-80
2024/01/22 23:52:38;;;;;;;;;;;-1.40;99.90;;;;;;6328246;22;20367;-79
2024/01/22 23:55:16;;;;;;;;;;;-1.50;99.90;;;;;;6306243;22;19963;-81
2024/01/22 23:58:25;;;;;;;;;;;-1.50;99.90;;;;;;6305588;22;19937;-81
